| time (UTC) | temp F | wind direction | speed knots | gust knots | rain 1hr in | rain 24hr in | rain mn in | humidity % | barometer mb |
| 20260503072803 | 66 | 0.0 | 0.0 | 0.00 | 0.00 | 0.00 | 45 | 1018.1 | |
| 20260503054740 | 58 | 0.0 | 0.0 | 0.00 | 0.00 | 0.00 | 62 | 1018.5 | |
| 20260503052735 | 54 | 0.0 | 0.0 | 0.00 | 0.00 | 0.00 | 68 | 1018.6 | |
| 20260503050730 | 51 | 0.0 | 0.0 | 0.00 | 0.00 | 0.00 | 74 | 1018.7 | |
| 20260503044725 | 49 | 0.0 | 0.0 | 0.00 | 0.00 | 0.00 | 75 | 1018.8 | |
| 20260503042720 | 47 | 0.0 | 0.0 | 0.00 | 0.00 | 0.00 | 79 | 1018.8 | |
| 20260503040716 | 46 | 0.0 | 0.0 | 0.00 | 0.00 | 0.00 | 79 | 1018.8 | |
| 20260503034711 | 47 | 0.0 | 0.0 | 0.00 | 0.00 | 0.00 | 75 | 1018.8 | |
| 20260503032706 | 47 | 0.0 | 0.0 | 0.00 | 0.00 | 0.00 | 78 | 1018.7 | |
| 20260503030701 | 48 | 0.0 | 0.0 | 0.00 | 0.00 | 0.00 | 74 | 1018.7 | |
| 20260503024657 | 49 | 0.0 | 0.0 | 0.00 | 0.00 | 0.00 | 68 | 1018.7 | |
| 20260503022652 | 48 | 0.0 | 0.0 | 0.00 | 0.00 | 0.00 | 75 | 1018.8 | |
| 20260503020647 | 49 | 0.0 | 0.0 | 0.00 | 0.00 | 0.00 | 74 | 1019.0 | |
| 20260503014642 | 49 | 0.0 | 0.0 | 0.00 | 0.00 | 0.00 | 73 | 1019.0 | |
| 20260503012638 | 50 | 0.0 | 0.0 | 0.00 | 0.00 | 0.00 | 68 | 1019.0 | |
| 20260503010633 | 50 | 0.0 | 0.0 | 0.00 | 0.00 | 0.00 | 72 | 1019.1 | |
| 20260503004628 | 50 | 0.0 | 0.0 | 0.00 | 0.00 | 0.00 | 70 | 1019.3 | |
| 20260503002623 | 51 | 0.0 | 0.0 | 0.00 | 0.00 | 0.00 | 69 | 1019.4 | |
| 20260503000618 | 52 | 0.0 | 0.0 | 0.00 | 0.00 | 0.00 | 65 | 1019.6 | |
| 20260502234614 | 53 | 0.0 | 0.0 | 0.00 | 0.00 | 0.00 | 62 | 1019.6 | |
| 20260502230604 | 53 | 0.0 | 0.0 | 0.00 | 0.00 | 0.00 | 65 | 1019.9 | |
| 20260502224559 | 54 | 0.0 | 0.0 | 0.00 | 0.00 | 0.00 | 60 | 1019.8 | |
| 20260502222554 | 54 | 0.0 | 0.0 | 0.00 | 0.00 | 0.00 | 62 | 1019.9 | |
| 20260502220550 | 54 | 0.0 | 0.0 | 0.00 | 0.00 | 0.00 | 59 | 1020.0 | |
| 20260502214545 | 54 | 0.0 | 0.0 | 0.00 | 0.00 | 0.00 | 63 | 1019.9 | |
| 20260502212540 | 56 | 0.0 | 0.0 | 0.00 | 0.00 | 0.00 | 59 | 1019.8 | |
| 20260502202525 | 58 | 0.0 | 0.0 | 0.00 | 0.00 | 0.00 | 58 | 1019.8 | |
| 20260502200520 | 59 | 0.0 | 0.0 | 0.00 | 0.00 | 0.00 | 54 | 1019.7 | |
| 20260502194516 | 59 | 0.0 | 0.0 | 0.00 | 0.00 | 0.00 | 55 | 1019.7 | |
| 20260502192511 | 61 | 0.0 | 0.0 | 0.00 | 0.00 | 0.00 | 51 | 1019.5 | |
| 20260502190506 | 62 | 0.0 | 0.0 | 0.00 | 0.00 | 0.00 | 49 | 1019.3 | |
| 20260502180452 | 67 | 0.0 | 0.0 | 0.00 | 0.00 | 0.00 | 35 | 1018.6 | |
| 20260502162427 | 73 | 0.0 | 0.0 | 0.00 | 0.00 | 0.00 | 26 | 1018.5 | |
| 20260502160422 | 74 | 0.0 | 0.0 | 0.00 | 0.00 | 0.00 | 26 | 1018.8 | |
| 20260502150408 | 80 | 0.0 | 0.0 | 0.00 | 0.00 | 0.00 | 23 | 1018.9 | |
| 20260502130340 | 81 | 0.0 | 0.0 | 0.00 | 0.00 | 0.00 | 24 | 1020.5 | |
| 20260502122330 | 80 | 0.0 | 0.0 | 0.00 | 0.00 | 0.00 | 26 | 1021.3 | |
| 20260502120325 | 79 | 0.0 | 0.0 | 0.00 | 0.00 | 0.00 | 27 | 1021.5 | |
| 20260502114321 | 79 | 0.0 | 0.0 | 0.00 | 0.00 | 0.00 | 27 | 1021.9 | |
| 20260502112316 | 79 | 0.0 | 0.0 | 0.00 | 0.00 | 0.00 | 27 | 1022.2 | |
| 20260502110311 | 77 | 0.0 | 0.0 | 0.00 | 0.00 | 0.00 | 28 | 1022.6 | |
| 20260502104306 | 78 | 0.0 | 0.0 | 0.00 | 0.00 | 0.00 | 27 | 1022.9 | |
| 20260502102305 | 76 | 0.0 | 0.0 | 0.00 | 0.00 | 0.00 | 30 | 1023.3 | |
| 20260502100257 | 76 | 0.0 | 0.0 | 0.00 | 0.00 | 0.00 | 31 | 1023.5 |